Time;durP1;ratioP1;P1;durP2;ratioP2;P2;SDS_P1;SDS_P2;PMS_P1;PMS_P2;Temp;Humidity;BMP_temperature;BMP_pressure;BME280_temperature;BME280_humidity;BME280_pressure;Samples;Min_cycle;Max_cycle;Signal;HPM_P1;HPM_P2
2021/06/07 00:01:59;;;;;;;1999.90;999.90;;;13.90;90.00;;;;;;5093174;28;20191;-58
2021/06/07 00:04:28;;;;;;;1999.90;999.90;;;13.90;91.00;;;;;;5092840;28;20227;-58
2021/06/07 00:06:57;;;;;;;1999.90;999.90;;;13.80;91.00;;;;;;5093155;28;20160;-58
2021/06/07 00:09:24;;;;;;;1999.90;999.90;;;13.80;91.30;;;;;;5093102;28;20171;-58
2021/06/07 00:11:54;;;;;;;1999.90;999.90;;;13.80;92.20;;;;;;5093079;28;20174;-58
2021/06/07 00:14:25;;;;;;;1999.90;999.90;;;13.70;91.80;;;;;;5093035;28;20196;-57
2021/06/07 00:16:52;;;;;;;1999.90;999.90;;;13.80;91.20;;;;;;5093023;28;20166;-58
2021/06/07 00:19:20;;;;;;;1999.90;999.90;;;13.70;90.80;;;;;;5092983;28;20171;-58
2021/06/07 00:21:48;;;;;;;1999.90;999.90;;;13.70;90.40;;;;;;5092834;28;20240;-58
2021/06/07 00:24:17;;;;;;;1999.90;999.90;;;13.80;89.80;;;;;;5092888;28;20210;-59
2021/06/07 00:26:45;;;;;;;1999.90;999.90;;;13.80;90.40;;;;;;5092892;28;20164;-58
2021/06/07 00:29:12;;;;;;;1999.90;999.90;;;13.80;90.10;;;;;;5092889;28;20633;-56
2021/06/07 00:31:39;;;;;;;1999.90;999.90;;;13.80;90.80;;;;;;5093037;28;20171;-58
2021/06/07 00:34:07;;;;;;;1999.90;999.90;;;13.70;90.80;;;;;;5092706;28;20181;-58
2021/06/07 00:36:36;;;;;;;1999.90;999.90;;;13.70;90.30;;;;;;5092829;28;20164;-58
2021/06/07 00:39:06;;;;;;;1999.90;999.90;;;13.70;90.10;;;;;;5092778;28;20697;-58
2021/06/07 00:41:34;;;;;;;1999.90;999.90;;;13.70;88.20;;;;;;5092829;28;20193;-58
2021/06/07 00:44:05;;;;;;;1999.90;999.90;;;13.80;88.40;;;;;;5092489;28;20239;-58
2021/06/07 00:46:31;;;;;;;1999.90;999.90;;;13.80;87.70;;;;;;5092764;28;20195;-58
2021/06/07 00:49:00;;;;;;;1999.90;999.90;;;13.90;86.40;;;;;;5092733;28;20183;-58
2021/06/07 00:51:27;;;;;;;1999.90;999.90;;;14.00;84.50;;;;;;5092528;28;20175;-58
2021/06/07 00:53:54;;;;;;;1999.90;999.90;;;14.00;84.80;;;;;;5092673;28;20172;-59
2021/06/07 00:56:21;;;;;;;1999.90;999.90;;;14.20;85.50;;;;;;5092598;28;20171;-58
2021/06/07 00:58:49;;;;;;;1999.90;999.90;;;14.20;85.40;;;;;;5092808;28;20622;-58
2021/06/07 01:01:22;;;;;;;1999.90;999.90;;;14.20;83.50;;;;;;5093345;28;20607;-58
2021/06/07 01:03:51;;;;;;;1999.90;999.90;;;14.40;81.20;;;;;;5096158;28;20282;-58
2021/06/07 01:06:18;;;;;;;1999.90;999.90;;;14.30;82.90;;;;;;5096393;28;20171;-58
2021/06/07 01:08:45;;;;;;;1999.90;999.90;;;14.30;83.20;;;;;;5096480;28;20164;-58
2021/06/07 01:11:12;;;;;;;1999.90;999.90;;;14.30;83.50;;;;;;5096412;28;20550;-58
2021/06/07 01:13:40;;;;;;;1999.90;999.90;;;14.30;83.10;;;;;;5096214;28;20621;-58
2021/06/07 01:16:07;;;;;;;1999.90;999.90;;;14.30;84.90;;;;;;5096218;28;20245;-59
2021/06/07 01:18:35;;;;;;;1999.90;999.90;;;14.30;83.00;;;;;;5096139;28;20638;-57
2021/06/07 01:21:09;;;;;;;1999.90;999.90;;;14.30;83.40;;;;;;5096155;28;20168;-59
2021/06/07 01:23:37;;;;;;;1999.90;999.90;;;14.20;85.40;;;;;;5096041;28;20196;-58
2021/06/07 01:26:06;;;;;;;1999.90;999.90;;;14.20;84.80;;;;;;5096052;28;20171;-58
2021/06/07 01:28:34;;;;;;;1999.90;999.90;;;14.20;86.00;;;;;;5095945;28;20664;-58
2021/06/07 01:31:01;;;;;;;1999.90;999.90;;;14.20;87.10;;;;;;5095933;28;20160;-58
2021/06/07 01:33:29;;;;;;;1999.90;999.90;;;14.10;86.50;;;;;;5095953;28;20232;-58
2021/06/07 01:35:59;;;;;;;1999.90;999.90;;;14.10;86.50;;;;;;5095846;28;20174;-59
2021/06/07 01:38:26;;;;;;;1999.90;999.90;;;14.10;85.00;;;;;;5095919;28;20194;-58
2021/06/07 01:41:00;;;;;;;1999.90;999.90;;;14.10;86.50;;;;;;5095759;28;20174;-58
2021/06/07 01:43:28;;;;;;;1999.90;999.90;;;14.00;87.20;;;;;;5095729;28;20542;-59
2021/06/07 01:45:56;;;;;;;1999.90;999.90;;;14.00;88.30;;;;;;5095621;28;20634;-58
2021/06/07 01:48:24;;;;;;;1999.90;999.90;;;13.90;90.20;;;;;;5095603;28;20563;-56
2021/06/07 01:50:53;;;;;;;1999.90;999.90;;;13.90;90.30;;;;;;5095535;28;20261;-59
2021/06/07 01:53:23;;;;;;;1999.90;999.90;;;13.80;90.40;;;;;;5095418;28;20216;-58
2021/06/07 01:55:54;;;;;;;1999.90;999.90;;;13.70;90.30;;;;;;5095583;28;20171;-58
2021/06/07 01:58:22;;;;;;;1999.90;999.90;;;13.70;90.30;;;;;;5095236;28;20170;-58
2021/06/07 02:00:54;;;;;;;1999.90;999.90;;;13.70;90.20;;;;;;5095524;28;20167;-58
2021/06/07 02:03:22;;;;;;;1999.90;999.90;;;13.60;90.50;;;;;;5095362;28;20237;-57
2021/06/07 02:06:00;;;;;;;1999.90;999.90;;;13.60;90.60;;;;;;5095226;28;20211;-58
2021/06/07 02:08:31;;;;;;;1999.90;999.90;;;13.70;90.60;;;;;;5095056;28;20163;-57
2021/06/07 02:11:19;;;;;;;1999.90;999.90;;;13.70;90.70;;;;;;5095108;28;20244;-57
2021/06/07 02:13:48;;;;;;;1999.90;999.90;;;13.70;90.00;;;;;;5095170;28;20152;-58
2021/06/07 02:16:22;;;;;;;1999.90;999.90;;;13.60;89.30;;;;;;5094939;28;20179;-58
2021/06/07 02:18:49;;;;;;;1999.90;999.90;;;13.60;90.20;;;;;;5095096;28;20487;-58
2021/06/07 02:21:19;;;;;;;1999.90;999.90;;;13.60;90.30;;;;;;5095078;28;20171;-57
2021/06/07 02:23:47;;;;;;;1999.90;999.90;;;13.60;90.10;;;;;;5095242;28;20241;-58
2021/06/07 02:26:14;;;;;;;1999.90;999.90;;;13.50;90.80;;;;;;5094908;28;20240;-58
2021/06/07 02:28:48;;;;;;;1999.90;999.90;;;13.50;91.00;;;;;;5094833;28;20199;-57
2021/06/07 02:31:15;;;;;;;1999.90;999.90;;;13.50;91.60;;;;;;5094841;28;20618;-58
2021/06/07 02:33:42;;;;;;;1999.90;999.90;;;13.50;91.30;;;;;;5094610;28;20209;-57
2021/06/07 02:36:09;;;;;;;1999.90;999.90;;;13.50;91.40;;;;;;5094626;28;20221;-57
2021/06/07 02:38:36;;;;;;;1999.90;999.90;;;13.40;91.10;;;;;;5094527;28;20178;-58
2021/06/07 02:41:03;;;;;;;1999.90;999.90;;;13.40;92.00;;;;;;5094397;28;20168;-58
2021/06/07 02:43:30;;;;;;;1999.90;999.90;;;13.40;92.90;;;;;;5094493;28;20244;-58
2021/06/07 02:45:57;;;;;;;1999.90;999.90;;;13.30;92.90;;;;;;5094449;28;20164;-58
2021/06/07 02:48:24;;;;;;;1999.90;999.90;;;13.20;93.30;;;;;;5094388;28;20172;-58
2021/06/07 02:50:51;;;;;;;1999.90;999.90;;;13.20;92.60;;;;;;5094550;28;20255;-58
2021/06/07 02:53:18;;;;;;;1999.90;999.90;;;13.20;92.90;;;;;;5094164;28;20176;-57
2021/06/07 02:55:48;;;;;;;1999.90;999.90;;;13.10;93.60;;;;;;5094280;28;20642;-58
2021/06/07 02:58:16;;;;;;;1999.90;999.90;;;13.10;93.40;;;;;;5094045;28;20183;-58
2021/06/07 03:01:00;;;;;;;1999.90;999.90;;;13.10;93.80;;;;;;5094238;28;20172;-58
2021/06/07 03:03:27;;;;;;;1999.90;999.90;;;13.10;93.20;;;;;;5094037;28;20581;-58
2021/06/07 03:05:59;;;;;;;1999.90;999.90;;;13.10;93.30;;;;;;5093953;28;20239;-56
2021/06/07 03:08:29;;;;;;;1999.90;999.90;;;13.20;93.70;;;;;;5093977;28;20164;-58
2021/06/07 03:10:59;;;;;;;1999.90;999.90;;;13.20;92.80;;;;;;5094023;28;20577;-52
2021/06/07 03:13:26;;;;;;;1999.90;999.90;;;13.40;92.50;;;;;;5093974;28;20242;-56
2021/06/07 03:15:56;;;;;;;1999.90;999.90;;;14.40;82.30;;;;;;5094006;28;20164;-58
2021/06/07 03:18:24;;;;;;;1999.90;999.90;;;15.20;74.20;;;;;;5094050;28;20179;-56
2021/06/07 03:20:51;;;;;;;1999.90;999.90;;;17.10;59.00;;;;;;5093971;28;20164;-56
2021/06/07 03:23:21;;;;;;;1999.90;999.90;;;18.10;53.70;;;;;;5093513;28;20203;-53
2021/06/07 03:25:50;;;;;;;1999.90;999.90;;;18.50;51.70;;;;;;5093236;28;20164;-58
2021/06/07 03:28:18;;;;;;;1999.90;999.90;;;18.80;49.70;;;;;;5093608;28;20179;-58
2021/06/07 03:30:46;;;;;;;1999.90;999.90;;;19.00;49.00;;;;;;5093501;28;20642;-57
2021/06/07 03:33:13;;;;;;;1999.90;999.90;;;19.00;48.40;;;;;;5093506;28;20175;-57
2021/06/07 03:35:42;;;;;;;1999.90;999.90;;;19.20;47.50;;;;;;5093620;28;20175;-56
2021/06/07 03:38:11;;;;;;;1999.90;999.90;;;19.30;47.60;;;;;;5093598;28;20239;-57
2021/06/07 03:40:41;;;;;;;1999.90;999.90;;;19.30;46.50;;;;;;5093549;28;20630;-57
2021/06/07 03:43:09;;;;;;;1999.90;999.90;;;19.40;46.40;;;;;;5093251;28;20259;-57
2021/06/07 03:45:36;;;;;;;1999.90;999.90;;;19.30;46.20;;;;;;5093412;28;20172;-58
2021/06/07 03:48:04;;;;;;;1999.90;999.90;;;19.30;46.20;;;;;;5093231;28;20516;-55
2021/06/07 03:50:33;;;;;;;1999.90;999.90;;;19.40;45.30;;;;;;5093339;28;20657;-56
2021/06/07 03:53:00;;;;;;;1999.90;999.90;;;19.90;43.90;;;;;;5093268;28;20168;-55
2021/06/07 03:55:28;;;;;;;1999.90;999.90;;;19.90;44.40;;;;;;5093367;28;20160;-55
2021/06/07 03:57:56;;;;;;;1999.90;999.90;;;19.70;44.70;;;;;;5093382;28;20175;-56
2021/06/07 04:00:29;;;;;;;1999.90;999.90;;;19.60;44.40;;;;;;5093094;28;20240;-54
2021/06/07 04:02:57;;;;;;;1999.90;999.90;;;19.70;44.00;;;;;;5093287;28;20264;-55
2021/06/07 04:05:24;;;;;;;1999.90;999.90;;;19.90;43.20;;;;;;5092714;28;20637;-56
2021/06/07 04:07:52;;;;;;;1999.90;999.90;;;20.00;42.20;;;;;;5092949;28;20164;-56
2021/06/07 04:10:21;;;;;;;1999.90;999.90;;;20.00;43.00;;;;;;5093212;28;20176;-57
2021/06/07 04:12:51;;;;;;;1999.90;999.90;;;19.80;43.40;;;;;;5093172;28;20195;-57
2021/06/07 04:15:20;;;;;;;1999.90;999.90;;;19.80;43.20;;;;;;5092973;28;20172;-57
2021/06/07 04:17:47;;;;;;;1999.90;999.90;;;19.80;43.20;;;;;;5092899;28;20168;-56
2021/06/07 04:20:17;;;;;;;1999.90;999.90;;;19.90;42.80;;;;;;5092746;28;20236;-56
2021/06/07 04:22:47;;;;;;;1999.90;999.90;;;20.00;41.90;;;;;;5092841;28;20247;-56
2021/06/07 04:25:16;;;;;;;1999.90;999.90;;;20.10;41.80;;;;;;5092933;28;20221;-57
2021/06/07 04:27:44;;;;;;;1999.90;999.90;;;20.00;42.20;;;;;;5092870;28;20221;-58
2021/06/07 04:30:14;;;;;;;1999.90;999.90;;;19.90;43.00;;;;;;5092811;28;20171;-57
2021/06/07 04:32:42;;;;;;;1999.90;999.90;;;20.00;41.80;;;;;;5092956;28;20152;-57
2021/06/07 04:35:11;;;;;;;1999.90;999.90;;;20.00;41.60;;;;;;5093347;28;20225;-57
2021/06/07 04:38:11;;;;;;;1999.90;999.90;;;20.10;41.50;;;;;;5096970;28;20614;-58
2021/06/07 04:40:35;;;;;;;1999.90;999.90;;;20.10;41.10;;;;;;5093762;28;20710;-58
2021/06/07 04:43:06;;;;;;;1999.90;999.90;;;19.90;41.70;;;;;;5096694;28;20215;-57
2021/06/07 04:45:34;;;;;;;1999.90;999.90;;;19.90;41.50;;;;;;5096607;28;20171;-57
2021/06/07 04:48:01;;;;;;;1999.90;999.90;;;19.90;41.30;;;;;;5096712;28;20206;-57
2021/06/07 04:50:30;;;;;;;1999.90;999.90;;;19.90;41.80;;;;;;5096632;28;20711;-59
2021/06/07 04:53:02;;;;;;;1999.90;999.90;;;19.90;41.40;;;;;;5096454;28;20228;-59
2021/06/07 04:55:30;;;;;;;1999.90;999.90;;;19.90;41.30;;;;;;5096761;28;20183;-59
2021/06/07 04:57:58;;;;;;;1999.90;999.90;;;20.00;40.70;;;;;;5096325;28;20184;-58
2021/06/07 05:00:26;;;;;;;1999.90;999.90;;;20.00;40.70;;;;;;5096499;28;20626;-58
2021/06/07 05:02:53;;;;;;;1999.90;999.90;;;20.10;40.70;;;;;;5096390;28;20256;-59
2021/06/07 05:05:21;;;;;;;1999.90;999.90;;;20.20;40.60;;;;;;5096229;28;20234;-58
2021/06/07 05:07:48;;;;;;;1999.90;999.90;;;20.30;40.00;;;;;;5096287;28;20168;-58
2021/06/07 05:10:16;;;;;;;1999.90;999.90;;;20.30;39.50;;;;;;5096285;28;20176;-58
2021/06/07 05:12:44;;;;;;;1999.90;999.90;;;20.30;40.00;;;;;;5096277;28;20167;-57
2021/06/07 05:15:12;;;;;;;1999.90;999.90;;;20.20;39.80;;;;;;5096121;28;20180;-58
2021/06/07 05:17:39;;;;;;;1999.90;999.90;;;20.20;40.30;;;;;;5096267;28;20190;-59
2021/06/07 05:20:08;;;;;;;1999.90;999.90;;;20.20;40.00;;;;;;5096007;28;20224;-57
2021/06/07 05:22:35;;;;;;;1999.90;999.90;;;20.10;40.30;;;;;;5096001;28;20649;-59
2021/06/07 05:25:03;;;;;;;1999.90;999.90;;;20.00;40.40;;;;;;5095952;28;20164;-58
2021/06/07 05:27:30;;;;;;;1999.90;999.90;;;20.20;39.60;;;;;;5095576;28;20180;-59
2021/06/07 05:29:59;;;;;;;1999.90;999.90;;;20.40;40.10;;;;;;5095295;28;20280;-57
2021/06/07 05:32:27;;;;;;;1999.90;999.90;;;20.60;38.50;;;;;;5095449;28;20180;-58
2021/06/07 05:34:54;;;;;;;1999.90;999.90;;;20.50;38.50;;;;;;5095311;28;20199;-58
2021/06/07 05:37:21;;;;;;;1999.90;999.90;;;20.60;38.60;;;;;;5095301;28;20175;-58
2021/06/07 05:39:49;;;;;;;1999.90;999.90;;;20.60;38.20;;;;;;5095289;28;20198;-58
2021/06/07 05:42:17;;;;;;;1999.90;999.90;;;20.50;38.70;;;;;;5095148;28;20182;-59
2021/06/07 05:44:44;;;;;;;1999.90;999.90;;;20.60;37.90;;;;;;5095407;28;20203;-59
2021/06/07 05:47:11;;;;;;;1999.90;999.90;;;20.70;37.70;;;;;;5094451;28;20175;-59
2021/06/07 05:49:38;;;;;;;1999.90;999.90;;;20.90;37.10;;;;;;5095345;28;20673;-59
2021/06/07 05:52:10;;;;;;;1999.90;999.90;;;21.00;36.70;;;;;;5095342;28;20513;-58
2021/06/07 05:54:38;;;;;;;1999.90;999.90;;;21.00;36.70;;;;;;5095192;28;20160;-58
2021/06/07 05:57:07;;;;;;;1999.90;999.90;;;20.80;37.50;;;;;;5095472;28;20182;-60
2021/06/07 05:59:37;;;;;;;1999.90;999.90;;;20.90;36.80;;;;;;5095269;28;20267;-60
2021/06/07 06:02:08;;;;;;;1999.90;999.90;;;20.90;36.70;;;;;;5095098;28;20201;-46
2021/06/07 06:04:36;;;;;;;1999.90;999.90;;;21.00;37.20;;;;;;5094661;28;20277;-48
2021/06/07 06:07:04;;;;;;;1999.90;999.90;;;21.00;37.70;;;;;;5094863;28;20618;-47
2021/06/07 06:09:31;;;;;;;1999.90;999.90;;;21.00;36.90;;;;;;5094704;28;20662;-46
2021/06/07 06:11:59;;;;;;;1999.90;999.90;;;20.90;37.40;;;;;;5094947;28;20165;-51
2021/06/07 06:14:29;;;;;;;1999.90;999.90;;;21.10;36.50;;;;;;5094967;28;20175;-63
2021/06/07 06:16:57;;;;;;;1999.90;999.90;;;21.00;36.80;;;;;;5094838;28;20527;-58
2021/06/07 06:19:23;;;;;;;1999.90;999.90;;;21.10;36.60;;;;;;5093862;28;20245;-50
2021/06/07 06:21:51;;;;;;;1999.90;999.90;;;21.10;36.80;;;;;;5094264;28;20180;-47
2021/06/07 06:24:18;;;;;;;1999.90;999.90;;;21.10;37.30;;;;;;5094687;28;20321;-46
2021/06/07 06:26:46;;;;;;;1999.90;999.90;;;21.10;37.30;;;;;;5076110;28;20630;-54
2021/06/07 06:29:13;;;;;;;1999.90;999.90;;;21.30;36.00;;;;;;5094260;28;20179;-47
2021/06/07 06:31:40;;;;;;;1999.90;999.90;;;21.10;37.50;;;;;;5094526;28;20198;-48
2021/06/07 06:34:07;;;;;;;1999.90;999.90;;;21.00;37.10;;;;;;5094308;28;20168;-49
2021/06/07 06:36:34;;;;;;;1999.90;999.90;;;21.30;35.90;;;;;;5094305;28;20172;-47
2021/06/07 06:39:02;;;;;;;1999.90;999.90;;;21.30;36.90;;;;;;5094147;28;20618;-53
2021/06/07 06:41:30;;;;;;;1999.90;999.90;;;21.20;37.50;;;;;;5094364;28;20172;-45
2021/06/07 06:43:58;;;;;;;1999.90;999.90;;;21.20;37.20;;;;;;5093977;28;20233;-46
2021/06/07 06:46:25;;;;;;;1999.90;999.90;;;21.30;37.20;;;;;;5094713;28;20214;-55
2021/06/07 06:48:51;;;;;;;1999.90;999.90;;;21.40;37.40;;;;;;5094156;28;20259;-49
2021/06/07 06:51:19;;;;;;;1999.90;999.90;;;21.50;36.50;;;;;;5094105;28;20689;-56
2021/06/07 06:53:46;;;;;;;1999.90;999.90;;;21.60;36.50;;;;;;5094554;28;20518;-52
2021/06/07 06:56:13;;;;;;;1999.90;999.90;;;21.70;36.30;;;;;;5094315;28;20168;-54
2021/06/07 06:58:39;;;;;;;1999.90;999.90;;;21.80;36.20;;;;;;5094040;28;20172;-54
2021/06/07 07:01:07;;;;;;;1999.90;999.90;;;21.90;36.20;;;;;;5093979;28;20168;-49
2021/06/07 07:03:34;;;;;;;1999.90;999.90;;;22.00;35.10;;;;;;5093594;28;20577;-55
2021/06/07 07:06:02;;;;;;;1999.90;999.90;;;22.10;35.70;;;;;;5093758;28;20174;-64
2021/06/07 07:08:29;;;;;;;1999.90;999.90;;;22.30;35.20;;;;;;5093792;28;20183;-52
2021/06/07 07:10:56;;;;;;;1999.90;999.90;;;22.50;34.70;;;;;;5093597;28;20584;-50
2021/06/07 07:13:23;;;;;;;1999.90;999.90;;;22.50;34.70;;;;;;5093584;28;20171;-53
2021/06/07 07:15:50;;;;;;;1999.90;999.90;;;22.50;34.60;;;;;;5093352;28;20174;-55
2021/06/07 07:18:18;;;;;;;1999.90;999.90;;;22.60;34.80;;;;;;5093829;28;20413;-50
2021/06/07 07:20:45;;;;;;;1999.90;999.90;;;22.60;34.00;;;;;;5093349;28;20191;-60
2021/06/07 07:23:12;;;;;;;1999.90;999.90;;;22.70;34.30;;;;;;5093311;28;20253;-46
2021/06/07 07:25:40;;;;;;;1999.90;999.90;;;22.90;34.00;;;;;;5093203;28;20163;-47
2021/06/07 07:28:09;;;;;;;1999.90;999.90;;;22.90;33.60;;;;;;5093203;28;20197;-48
2021/06/07 07:30:38;;;;;;;1999.90;999.90;;;22.90;35.10;;;;;;5093309;28;20175;-46
2021/06/07 07:33:06;;;;;;;1999.90;999.90;;;23.00;34.20;;;;;;5093168;28;20175;-54
2021/06/07 07:35:35;;;;;;;1999.90;999.90;;;23.00;34.10;;;;;;5093297;28;20160;-52
2021/06/07 07:38:03;;;;;;;1999.90;999.90;;;23.10;34.40;;;;;;5092746;28;20526;-57
2021/06/07 07:40:31;;;;;;;1999.90;999.90;;;23.20;33.80;;;;;;5092713;28;20236;-55
2021/06/07 07:42:58;;;;;;;1999.90;999.90;;;23.20;33.20;;;;;;5092731;28;20198;-61
2021/06/07 07:45:28;;;;;;;1999.90;999.90;;;23.20;32.20;;;;;;5092905;28;20179;-53
2021/06/07 07:48:02;;;;;;;1999.90;999.90;;;23.20;33.40;;;;;;5092898;28;20164;-46
2021/06/07 07:50:30;;;;;;;1999.90;999.90;;;23.30;33.60;;;;;;5092937;28;20208;-46
2021/06/07 07:52:57;;;;;;;1999.90;999.90;;;23.40;33.00;;;;;;5092851;28;20163;-56
2021/06/07 07:55:29;;;;;;;1999.90;999.90;;;23.40;32.80;;;;;;5092451;28;20167;-47
2021/06/07 07:57:55;;;;;;;1999.90;999.90;;;23.40;33.60;;;;;;5092684;28;20168;-52
2021/06/07 08:00:24;;;;;;;1999.90;999.90;;;23.50;32.40;;;;;;5092755;28;20168;-46
2021/06/07 08:02:52;;;;;;;1999.90;999.90;;;23.60;32.40;;;;;;5092724;28;20206;-66
2021/06/07 08:05:19;;;;;;;1999.90;999.90;;;23.70;32.30;;;;;;5092373;28;20310;-47
2021/06/07 08:07:46;;;;;;;1999.90;999.90;;;23.70;33.00;;;;;;5092609;28;20168;-61
2021/06/07 08:10:13;;;;;;;1999.90;999.90;;;23.70;32.40;;;;;;5092243;28;20223;-55
2021/06/07 08:12:41;;;;;;;1999.90;999.90;;;23.90;32.20;;;;;;5092385;28;20164;-56
2021/06/07 08:15:09;;;;;;;1999.90;999.90;;;24.00;31.60;;;;;;5091899;28;20225;-56
2021/06/07 08:17:37;;;;;;;1999.90;999.90;;;24.00;31.60;;;;;;5092507;28;20163;-49
2021/06/07 08:20:09;;;;;;;1999.90;999.90;;;24.10;32.00;;;;;;5092178;28;20618;-59
2021/06/07 08:22:36;;;;;;;1999.90;999.90;;;24.20;31.90;;;;;;5092091;28;20163;-51
2021/06/07 08:25:04;;;;;;;1999.90;999.90;;;24.30;31.70;;;;;;5073048;28;20228;-56
2021/06/07 08:27:31;;;;;;;1999.90;999.90;;;24.30;32.00;;;;;;5092298;28;20155;-53
2021/06/07 08:29:58;;;;;;;1999.90;999.90;;;24.40;31.30;;;;;;5091795;28;20166;-60
2021/06/07 08:32:25;;;;;;;1999.90;999.90;;;24.40;31.70;;;;;;5091289;28;20172;-45
2021/06/07 08:34:51;;;;;;;1999.90;999.90;;;24.50;31.70;;;;;;5091693;28;20203;-48
2021/06/07 08:37:18;;;;;;;1999.90;999.90;;;24.50;30.80;;;;;;5092426;28;20695;-59
2021/06/07 08:39:45;;;;;;;1999.90;999.90;;;24.50;31.70;;;;;;5092117;28;20172;-52
2021/06/07 08:42:12;;;;;;;1999.90;999.90;;;24.50;30.70;;;;;;5092343;28;20164;-54
2021/06/07 08:44:40;;;;;;;1999.90;999.90;;;24.60;32.10;;;;;;5091937;28;20214;-58
2021/06/07 08:47:07;;;;;;;1999.90;999.90;;;24.60;31.30;;;;;;5092232;28;20224;-55
2021/06/07 08:49:34;;;;;;;1999.90;999.90;;;24.70;31.50;;;;;;5092058;28;20200;-57
2021/06/07 08:52:01;;;;;;;1999.90;999.90;;;24.80;31.10;;;;;;5092449;28;20224;-60
2021/06/07 08:54:29;;;;;;;1999.90;999.90;;;24.80;31.80;;;;;;5092258;28;20540;-52
2021/06/07 08:56:57;;;;;;;1999.90;999.90;;;24.80;31.10;;;;;;5092255;28;20648;-52
2021/06/07 08:59:23;;;;;;;1999.90;999.90;;;24.90;30.90;;;;;;5092182;28;20263;-49
2021/06/07 09:01:54;;;;;;;1999.90;999.90;;;24.90;31.70;;;;;;5092317;28;20170;-47
2021/06/07 09:04:24;;;;;;;1999.90;999.90;;;25.00;31.40;;;;;;5091788;28;20230;-51
2021/06/07 09:06:51;;;;;;;1999.90;999.90;;;25.00;31.70;;;;;;5088511;28;20204;-47
2021/06/07 09:09:22;;;;;;;1999.90;999.90;;;25.20;31.40;;;;;;5091409;28;20172;-61
2021/06/07 09:11:58;;;;;;;1999.90;999.90;;;25.20;31.00;;;;;;5092150;28;20179;-67
2021/06/07 09:14:26;;;;;;;1999.90;999.90;;;25.30;31.40;;;;;;5091916;28;20618;-59
2021/06/07 09:16:53;;;;;;;1999.90;999.90;;;25.30;31.00;;;;;;5092477;28;20164;-48
2021/06/07 09:19:25;;;;;;;1999.90;999.90;;;25.40;31.40;;;;;;5092364;28;20172;-58
2021/06/07 09:21:55;;;;;;;1999.90;999.90;;;25.50;29.90;;;;;;5092515;28;20247;-55
2021/06/07 09:24:22;;;;;;;1999.90;999.90;;;25.60;31.00;;;;;;5095786;28;20211;-62
2021/06/07 09:26:50;;;;;;;1999.90;999.90;;;25.70;30.20;;;;;;5095557;28;20179;-66
2021/06/07 09:29:20;;;;;;;1999.90;999.90;;;25.80;29.90;;;;;;5095701;28;20220;-60
2021/06/07 09:31:53;;;;;;;1999.90;999.90;;;25.90;29.70;;;;;;5094973;28;20439;-49
2021/06/07 09:34:38;;;;;;;1999.90;999.90;;;25.90;30.00;;;;;;5095885;28;20163;-50
2021/06/07 09:37:08;;;;;;;1999.90;999.90;;;25.90;30.60;;;;;;5096692;28;20152;-45
2021/06/07 09:39:36;;;;;;;1999.90;999.90;;;25.90;30.20;;;;;;5096358;28;20178;-57
2021/06/07 09:42:13;;;;;;;1999.90;999.90;;;25.90;29.80;;;;;;5095645;28;20190;-61
2021/06/07 09:44:51;;;;;;;1999.90;999.90;;;26.00;30.50;;;;;;5095319;28;20203;-51
2021/06/07 09:47:25;;;;;;;1999.90;999.90;;;26.20;29.90;;;;;;5095299;28;20159;-52
2021/06/07 09:49:56;;;;;;;1999.90;999.90;;;26.30;29.90;;;;;;5095426;28;20629;-53
2021/06/07 09:52:27;;;;;;;1999.90;999.90;;;26.50;29.90;;;;;;5095223;28;20164;-51
2021/06/07 09:55:08;;;;;;;1999.90;999.90;;;26.60;30.80;;;;;;5095378;28;20494;-49
2021/06/07 09:57:47;;;;;;;1999.90;999.90;;;26.50;29.30;;;;;;5095151;28;20152;-47
2021/06/07 10:00:42;;;;;;;1999.90;999.90;;;26.50;29.80;;;;;;5094943;28;20516;-46
2021/06/07 10:03:26;;;;;;;1999.90;999.90;;;26.50;30.00;;;;;;5094929;28;20211;-49
2021/06/07 10:06:02;;;;;;;1999.90;999.90;;;26.40;29.30;;;;;;5095109;28;20222;-56
2021/06/07 10:08:44;;;;;;;1999.90;999.90;;;26.30;29.70;;;;;;5095084;28;20156;-51
2021/06/07 10:11:45;;;;;;;1999.90;999.90;;;26.20;30.00;;;;;;5094796;28;20190;-51
2021/06/07 10:14:20;;;;;;;1999.90;999.90;;;26.20;30.00;;;;;;5091848;28;20156;-50
2021/06/07 10:17:00;;;;;;;1999.90;999.90;;;26.10;29.00;;;;;;5076896;28;20195;-49
2021/06/07 10:22:29;;;;;;;1999.90;999.90;;;26.30;29.50;;;;;;5069563;28;20187;-50
2021/06/07 10:24:56;;;;;;;1999.90;999.90;;;26.50;29.40;;;;;;5094448;28;20283;-49
2021/06/07 10:27:23;;;;;;;1999.90;999.90;;;26.50;29.50;;;;;;5094597;28;20168;-48
2021/06/07 10:29:49;;;;;;;1999.90;999.90;;;26.40;29.30;;;;;;5094055;28;20637;-47
2021/06/07 10:32:18;;;;;;;1999.90;999.90;;;26.30;28.90;;;;;;5094704;28;20168;-46
2021/06/07 10:34:54;;;;;;;1999.90;999.90;;;26.30;29.10;;;;;;5094068;28;20180;-46
2021/06/07 10:37:22;;;;;;;1999.90;999.90;;;26.40;29.50;;;;;;5094491;28;20284;-48
2021/06/07 10:39:49;;;;;;;1999.90;999.90;;;26.50;29.10;;;;;;5094508;28;20233;-54
2021/06/07 10:42:26;;;;;;;1999.90;999.90;;;26.50;29.30;;;;;;5094515;28;20182;-48
2021/06/07 10:45:04;;;;;;;1999.90;999.90;;;26.60;29.50;;;;;;5094302;28;20198;-51
2021/06/07 10:47:46;;;;;;;1999.90;999.90;;;26.60;29.20;;;;;;5094422;28;20240;-48
2021/06/07 10:50:19;;;;;;;1999.90;999.90;;;26.50;29.30;;;;;;5094876;28;20622;-47
2021/06/07 10:52:59;;;;;;;1999.90;999.90;;;26.40;29.60;;;;;;5094440;28;20156;-49
2021/06/07 10:55:40;;;;;;;1999.90;999.90;;;26.40;30.00;;;;;;5094160;28;20668;-48
2021/06/07 10:58:12;;;;;;;1999.90;999.90;;;26.60;28.90;;;;;;5094210;28;20627;-47
2021/06/07 11:00:44;;;;;;;1999.90;999.90;;;26.80;29.00;;;;;;5093955;28;20164;-57
2021/06/07 11:03:26;;;;;;;1999.90;999.90;;;26.80;29.10;;;;;;5093982;28;20711;-55
2021/06/07 11:05:56;;;;;;;1999.90;999.90;;;26.80;29.40;;;;;;5093807;28;20227;-53
2021/06/07 11:08:31;;;;;;;1999.90;999.90;;;26.80;29.20;;;;;;5093838;28;20167;-53
2021/06/07 11:11:13;;;;;;;1999.90;999.90;;;26.80;29.70;;;;;;5093876;28;20274;-57
2021/06/07 11:13:49;;;;;;;1999.90;999.90;;;26.90;29.00;;;;;;5094010;28;20160;-53
2021/06/07 11:16:33;;;;;;;1999.90;999.90;;;27.00;29.40;;;;;;5093781;28;20255;-58
2021/06/07 11:19:01;;;;;;;1999.90;999.90;;;27.00;29.00;;;;;;5093705;28;20512;-62
2021/06/07 11:21:55;;;;;;;1999.90;999.90;;;27.00;29.60;;;;;;5093557;28;20522;-67
2021/06/07 11:24:34;;;;;;;1999.90;999.90;;;27.00;29.30;;;;;;5093571;28;20191;-63
2021/06/07 11:27:04;;;;;;;1999.90;999.90;;;27.10;29.70;;;;;;5093637;28;20211;-55
2021/06/07 11:29:32;;;;;;;1999.90;999.90;;;27.10;29.50;;;;;;5093553;28;20174;-64
2021/06/07 11:32:11;;;;;;;1999.90;999.90;;;26.90;29.70;;;;;;5093685;28;20214;-63
2021/06/07 11:34:47;;;;;;;1999.90;999.90;;;26.90;29.60;;;;;;5093372;28;20171;-57
2021/06/07 11:37:17;;;;;;;1999.90;999.90;;;26.80;29.70;;;;;;5093494;28;20224;-62
2021/06/07 11:39:43;;;;;;;1999.90;999.90;;;26.80;29.90;;;;;;5093381;28;20584;-62
2021/06/07 11:42:15;;;;;;;1999.90;999.90;;;26.90;29.00;;;;;;5093399;28;20183;-55
2021/06/07 11:44:53;;;;;;;1999.90;999.90;;;26.90;29.40;;;;;;5074593;28;20203;-46
2021/06/07 11:47:26;;;;;;;1999.90;999.90;;;27.00;30.40;;;;;;5093437;28;20156;-51
2021/06/07 11:49:59;;;;;;;1999.90;999.90;;;27.10;29.70;;;;;;5093190;28;20160;-55
2021/06/07 11:52:35;;;;;;;1999.90;999.90;;;27.10;29.60;;;;;;5093117;28;20178;-64
2021/06/07 11:55:30;;;;;;;1999.90;999.90;;;27.20;29.50;;;;;;5092984;28;20254;-49
2021/06/07 11:58:26;;;;;;;1999.90;999.90;;;27.30;29.70;;;;;;5093042;28;20553;-55
2021/06/07 12:01:01;;;;;;;1999.90;999.90;;;27.30;28.60;;;;;;5075973;28;20253;-57
2021/06/07 12:03:30;;;;;;;1999.90;999.90;;;27.30;29.30;;;;;;5093057;28;20217;-61
2021/06/07 12:05:58;;;;;;;1999.90;999.90;;;27.40;30.00;;;;;;5092705;28;20235;-43
2021/06/07 12:08:27;;;;;;;1999.90;999.90;;;27.40;29.80;;;;;;5092838;28;20176;-56
2021/06/07 12:11:05;;;;;;;1999.90;999.90;;;27.40;29.90;;;;;;5092875;28;20164;-62
2021/06/07 12:13:36;;;;;;;1999.90;999.90;;;27.40;29.00;;;;;;5092682;28;20163;-55
2021/06/07 12:16:16;;;;;;;1999.90;999.90;;;27.40;29.40;;;;;;5092776;28;20240;-47